sensor_id;sensor_type;location;lat;lon;timestamp;P1;durP1;ratioP1;P2;durP2;ratioP2
56333;SDS011;42240;53.626;55.886;2023-05-10T00:01:16;0.20;;;0.20;;
56333;SDS011;42240;53.626;55.886;2023-05-10T00:02:49;0.20;;;0.20;;
56333;SDS011;42240;53.626;55.886;2023-05-10T00:04:23;0.20;;;0.20;;
56333;SDS011;42240;53.626;55.886;2023-05-10T00:05:59;0.20;;;0.20;;
56333;SDS011;42240;53.626;55.886;2023-05-10T00:07:33;0.20;;;0.20;;
56333;SDS011;42240;53.626;55.886;2023-05-10T00:09:06;0.20;;;0.20;;
56333;SDS011;42240;53.626;55.886;2023-05-10T00:10:40;0.20;;;0.20;;
56333;SDS011;42240;53.626;55.886;2023-05-10T00:12:13;0.20;;;0.20;;
56333;SDS011;42240;53.626;55.886;2023-05-10T00:13:47;0.20;;;0.20;;
56333;SDS011;42240;53.626;55.886;2023-05-10T00:15:20;0.20;;;0.20;;
56333;SDS011;42240;53.626;55.886;2023-05-10T00:16:53;0.22;;;0.22;;
56333;SDS011;42240;53.626;55.886;2023-05-10T00:18:27;0.10;;;0.10;;
56333;SDS011;42240;53.626;55.886;2023-05-10T00:20:00;0.10;;;0.10;;
56333;SDS011;42240;53.626;55.886;2023-05-10T00:21:34;0.20;;;0.20;;
56333;SDS011;42240;53.626;55.886;2023-05-10T00:23:07;0.20;;;0.20;;
56333;SDS011;42240;53.626;55.886;2023-05-10T00:24:40;0.20;;;0.20;;
56333;SDS011;42240;53.626;55.886;2023-05-10T00:26:14;0.20;;;0.20;;
56333;SDS011;42240;53.626;55.886;2023-05-10T00:27:54;0.20;;;0.20;;
56333;SDS011;42240;53.626;55.886;2023-05-10T00:29:29;0.20;;;0.20;;
56333;SDS011;42240;53.626;55.886;2023-05-10T00:31:04;0.20;;;0.20;;
56333;SDS011;42240;53.626;55.886;2023-05-10T00:32:37;0.20;;;0.20;;
56333;SDS011;42240;53.626;55.886;2023-05-10T00:34:10;0.20;;;0.20;;
56333;SDS011;42240;53.626;55.886;2023-05-10T00:35:43;0.20;;;0.20;;
56333;SDS011;42240;53.626;55.886;2023-05-10T00:37:17;0.20;;;0.20;;
56333;SDS011;42240;53.626;55.886;2023-05-10T00:38:50;0.20;;;0.20;;
56333;SDS011;42240;53.626;55.886;2023-05-10T00:40:24;0.20;;;0.20;;
56333;SDS011;42240;53.626;55.886;2023-05-10T00:42:02;0.20;;;0.20;;
56333;SDS011;42240;53.626;55.886;2023-05-10T00:43:37;0.20;;;0.20;;
56333;SDS011;42240;53.626;55.886;2023-05-10T00:45:10;0.20;;;0.20;;
56333;SDS011;42240;53.626;55.886;2023-05-10T00:46:44;0.20;;;0.20;;
56333;SDS011;42240;53.626;55.886;2023-05-10T00:48:18;0.20;;;0.20;;
56333;SDS011;42240;53.626;55.886;2023-05-10T00:49:52;0.20;;;0.20;;
56333;SDS011;42240;53.626;55.886;2023-05-10T00:51:25;0.20;;;0.20;;
56333;SDS011;42240;53.626;55.886;2023-05-10T00:52:59;0.20;;;0.20;;
56333;SDS011;42240;53.626;55.886;2023-05-10T00:54:34;0.20;;;0.20;;
56333;SDS011;42240;53.626;55.886;2023-05-10T00:56:07;0.20;;;0.20;;
56333;SDS011;42240;53.626;55.886;2023-05-10T00:57:41;0.20;;;0.20;;
56333;SDS011;42240;53.626;55.886;2023-05-10T00:59:15;0.20;;;0.20;;
56333;SDS011;42240;53.626;55.886;2023-05-10T01:00:51;0.20;;;0.20;;
56333;SDS011;42240;53.626;55.886;2023-05-10T01:02:25;0.20;;;0.20;;
56333;SDS011;42240;53.626;55.886;2023-05-10T01:03:58;0.20;;;0.20;;
56333;SDS011;42240;53.626;55.886;2023-05-10T01:05:32;0.10;;;0.10;;
56333;SDS011;42240;53.626;55.886;2023-05-10T01:07:05;0.20;;;0.20;;
56333;SDS011;42240;53.626;55.886;2023-05-10T01:08:39;0.20;;;0.20;;
56333;SDS011;42240;53.626;55.886;2023-05-10T01:10:13;0.20;;;0.20;;
56333;SDS011;42240;53.626;55.886;2023-05-10T01:11:47;0.20;;;0.20;;
56333;SDS011;42240;53.626;55.886;2023-05-10T01:13:32;0.20;;;0.20;;
56333;SDS011;42240;53.626;55.886;2023-05-10T01:15:13;0.20;;;0.20;;
56333;SDS011;42240;53.626;55.886;2023-05-10T01:16:49;0.20;;;0.20;;
56333;SDS011;42240;53.626;55.886;2023-05-10T01:18:23;0.20;;;0.20;;
56333;SDS011;42240;53.626;55.886;2023-05-10T01:19:56;0.20;;;0.20;;
56333;SDS011;42240;53.626;55.886;2023-05-10T01:21:38;0.20;;;0.20;;
56333;SDS011;42240;53.626;55.886;2023-05-10T01:31:08;0.20;;;0.20;;
56333;SDS011;42240;53.626;55.886;2023-05-10T01:33:10;0.20;;;0.20;;
56333;SDS011;42240;53.626;55.886;2023-05-10T01:35:05;0.22;;;0.22;;
56333;SDS011;42240;53.626;55.886;2023-05-10T01:36:55;0.20;;;0.20;;
56333;SDS011;42240;53.626;55.886;2023-05-10T01:42:28;0.20;;;0.20;;
56333;SDS011;42240;53.626;55.886;2023-05-10T01:44:20;0.20;;;0.20;;
56333;SDS011;42240;53.626;55.886;2023-05-10T01:46:10;0.20;;;0.20;;
56333;SDS011;42240;53.626;55.886;2023-05-10T01:48:05;0.20;;;0.20;;
56333;SDS011;42240;53.626;55.886;2023-05-10T01:49:50;0.20;;;0.20;;
56333;SDS011;42240;53.626;55.886;2023-05-10T01:51:27;0.20;;;0.20;;
56333;SDS011;42240;53.626;55.886;2023-05-10T01:53:09;0.20;;;0.20;;
56333;SDS011;42240;53.626;55.886;2023-05-10T01:54:53;0.30;;;0.30;;
56333;SDS011;42240;53.626;55.886;2023-05-10T01:56:35;0.20;;;0.20;;
56333;SDS011;42240;53.626;55.886;2023-05-10T01:58:19;0.20;;;0.20;;
56333;SDS011;42240;53.626;55.886;2023-05-10T01:59:55;0.20;;;0.20;;
56333;SDS011;42240;53.626;55.886;2023-05-10T02:01:29;0.20;;;0.20;;
56333;SDS011;42240;53.626;55.886;2023-05-10T02:03:05;0.30;;;0.30;;
56333;SDS011;42240;53.626;55.886;2023-05-10T02:04:42;0.20;;;0.20;;
56333;SDS011;42240;53.626;55.886;2023-05-10T02:06:18;0.20;;;0.20;;
56333;SDS011;42240;53.626;55.886;2023-05-10T02:07:53;0.20;;;0.20;;
56333;SDS011;42240;53.626;55.886;2023-05-10T02:09:27;0.20;;;0.20;;
56333;SDS011;42240;53.626;55.886;2023-05-10T02:11:02;0.20;;;0.20;;
56333;SDS011;42240;53.626;55.886;2023-05-10T02:12:41;0.20;;;0.20;;
56333;SDS011;42240;53.626;55.886;2023-05-10T02:14:16;0.20;;;0.20;;
56333;SDS011;42240;53.626;55.886;2023-05-10T02:15:51;0.20;;;0.20;;
56333;SDS011;42240;53.626;55.886;2023-05-10T02:17:27;0.20;;;0.20;;
56333;SDS011;42240;53.626;55.886;2023-05-10T02:19:03;0.20;;;0.20;;
56333;SDS011;42240;53.626;55.886;2023-05-10T02:20:37;0.20;;;0.20;;
56333;SDS011;42240;53.626;55.886;2023-05-10T02:22:12;0.20;;;0.20;;
56333;SDS011;42240;53.626;55.886;2023-05-10T02:23:46;0.20;;;0.20;;
56333;SDS011;42240;53.626;55.886;2023-05-10T02:25:24;0.20;;;0.20;;
56333;SDS011;42240;53.626;55.886;2023-05-10T02:26:59;0.20;;;0.20;;
56333;SDS011;42240;53.626;55.886;2023-05-10T02:28:35;0.20;;;0.20;;
56333;SDS011;42240;53.626;55.886;2023-05-10T02:30:10;0.20;;;0.20;;
56333;SDS011;42240;53.626;55.886;2023-05-10T02:31:46;0.20;;;0.20;;
56333;SDS011;42240;53.626;55.886;2023-05-10T02:33:20;0.20;;;0.20;;
56333;SDS011;42240;53.626;55.886;2023-05-10T02:34:54;0.20;;;0.20;;
56333;SDS011;42240;53.626;55.886;2023-05-10T02:36:30;0.20;;;0.20;;
56333;SDS011;42240;53.626;55.886;2023-05-10T02:38:04;0.20;;;0.20;;
56333;SDS011;42240;53.626;55.886;2023-05-10T02:39:39;0.20;;;0.20;;
56333;SDS011;42240;53.626;55.886;2023-05-10T02:41:16;0.20;;;0.20;;
56333;SDS011;42240;53.626;55.886;2023-05-10T02:42:51;0.20;;;0.20;;
56333;SDS011;42240;53.626;55.886;2023-05-10T02:44:27;0.20;;;0.20;;
56333;SDS011;42240;53.626;55.886;2023-05-10T02:46:03;0.20;;;0.20;;
56333;SDS011;42240;53.626;55.886;2023-05-10T02:47:37;0.20;;;0.20;;
56333;SDS011;42240;53.626;55.886;2023-05-10T02:49:11;0.20;;;0.20;;
56333;SDS011;42240;53.626;55.886;2023-05-10T02:50:45;0.20;;;0.20;;
56333;SDS011;42240;53.626;55.886;2023-05-10T02:52:27;0.20;;;0.20;;
56333;SDS011;42240;53.626;55.886;2023-05-10T02:54:08;0.20;;;0.20;;
56333;SDS011;42240;53.626;55.886;2023-05-10T02:55:45;0.20;;;0.20;;
56333;SDS011;42240;53.626;55.886;2023-05-10T02:57:28;0.20;;;0.20;;
56333;SDS011;42240;53.626;55.886;2023-05-10T02:59:07;0.20;;;0.20;;
56333;SDS011;42240;53.626;55.886;2023-05-10T03:00:40;0.20;;;0.20;;
56333;SDS011;42240;53.626;55.886;2023-05-10T03:02:13;0.20;;;0.20;;
56333;SDS011;42240;53.626;55.886;2023-05-10T03:03:47;0.20;;;0.20;;
56333;SDS011;42240;53.626;55.886;2023-05-10T03:05:20;0.20;;;0.20;;
56333;SDS011;42240;53.626;55.886;2023-05-10T03:06:53;0.20;;;0.20;;
56333;SDS011;42240;53.626;55.886;2023-05-10T03:08:27;0.20;;;0.20;;
56333;SDS011;42240;53.626;55.886;2023-05-10T03:10:02;0.20;;;0.20;;
56333;SDS011;42240;53.626;55.886;2023-05-10T03:15:13;0.20;;;0.20;;
56333;SDS011;42240;53.626;55.886;2023-05-10T03:17:10;0.20;;;0.20;;
56333;SDS011;42240;53.626;55.886;2023-05-10T03:19:01;0.20;;;0.20;;
56333;SDS011;42240;53.626;55.886;2023-05-10T03:20:49;0.20;;;0.20;;
56333;SDS011;42240;53.626;55.886;2023-05-10T03:22:30;0.10;;;0.10;;
56333;SDS011;42240;53.626;55.886;2023-05-10T03:24:05;0.20;;;0.20;;
56333;SDS011;42240;53.626;55.886;2023-05-10T03:25:41;0.20;;;0.20;;
56333;SDS011;42240;53.626;55.886;2023-05-10T03:27:16;0.20;;;0.20;;
56333;SDS011;42240;53.626;55.886;2023-05-10T03:28:50;0.20;;;0.20;;
56333;SDS011;42240;53.626;55.886;2023-05-10T03:30:25;0.20;;;0.20;;
56333;SDS011;42240;53.626;55.886;2023-05-10T03:32:01;0.17;;;0.17;;
56333;SDS011;42240;53.626;55.886;2023-05-10T03:33:41;0.20;;;0.20;;
56333;SDS011;42240;53.626;55.886;2023-05-10T03:35:21;0.15;;;0.15;;
56333;SDS011;42240;53.626;55.886;2023-05-10T03:36:56;0.20;;;0.20;;
56333;SDS011;42240;53.626;55.886;2023-05-10T03:38:31;0.17;;;0.17;;
56333;SDS011;42240;53.626;55.886;2023-05-10T03:40:05;0.10;;;0.10;;
56333;SDS011;42240;53.626;55.886;2023-05-10T03:41:40;0.20;;;0.20;;
56333;SDS011;42240;53.626;55.886;2023-05-10T03:43:14;0.10;;;0.10;;
56333;SDS011;42240;53.626;55.886;2023-05-10T03:44:47;0.17;;;0.17;;
56333;SDS011;42240;53.626;55.886;2023-05-10T03:46:22;0.20;;;0.20;;
56333;SDS011;42240;53.626;55.886;2023-05-10T03:47:55;0.10;;;0.10;;
56333;SDS011;42240;53.626;55.886;2023-05-10T03:49:29;0.10;;;0.10;;
56333;SDS011;42240;53.626;55.886;2023-05-10T03:51:03;0.10;;;0.10;;
56333;SDS011;42240;53.626;55.886;2023-05-10T03:52:37;0.10;;;0.10;;
56333;SDS011;42240;53.626;55.886;2023-05-10T03:54:11;0.10;;;0.10;;
56333;SDS011;42240;53.626;55.886;2023-05-10T03:55:45;0.20;;;0.20;;
56333;SDS011;42240;53.626;55.886;2023-05-10T03:57:18;0.10;;;0.10;;
56333;SDS011;42240;53.626;55.886;2023-05-10T03:58:52;0.10;;;0.10;;
56333;SDS011;42240;53.626;55.886;2023-05-10T04:00:25;0.10;;;0.10;;
56333;SDS011;42240;53.626;55.886;2023-05-10T04:02:00;0.10;;;0.10;;
56333;SDS011;42240;53.626;55.886;2023-05-10T04:03:34;0.10;;;0.10;;
56333;SDS011;42240;53.626;55.886;2023-05-10T04:05:10;0.10;;;0.10;;
56333;SDS011;42240;53.626;55.886;2023-05-10T04:06:44;0.10;;;0.10;;
56333;SDS011;42240;53.626;55.886;2023-05-10T04:08:17;0.10;;;0.10;;
56333;SDS011;42240;53.626;55.886;2023-05-10T04:09:51;0.10;;;0.10;;
56333;SDS011;42240;53.626;55.886;2023-05-10T04:11:26;0.10;;;0.10;;
56333;SDS011;42240;53.626;55.886;2023-05-10T04:13:00;0.10;;;0.10;;
56333;SDS011;42240;53.626;55.886;2023-05-10T04:14:33;0.10;;;0.10;;
56333;SDS011;42240;53.626;55.886;2023-05-10T04:16:07;0.10;;;0.10;;
56333;SDS011;42240;53.626;55.886;2023-05-10T04:17:40;0.10;;;0.10;;
56333;SDS011;42240;53.626;55.886;2023-05-10T04:19:13;0.10;;;0.10;;
56333;SDS011;42240;53.626;55.886;2023-05-10T04:20:46;0.10;;;0.10;;
56333;SDS011;42240;53.626;55.886;2023-05-10T04:22:20;0.10;;;0.10;;
56333;SDS011;42240;53.626;55.886;2023-05-10T04:23:53;0.10;;;0.10;;
56333;SDS011;42240;53.626;55.886;2023-05-10T04:25:26;0.10;;;0.10;;
56333;SDS011;42240;53.626;55.886;2023-05-10T04:26:59;0.10;;;0.10;;
56333;SDS011;42240;53.626;55.886;2023-05-10T04:28:33;0.10;;;0.10;;
56333;SDS011;42240;53.626;55.886;2023-05-10T04:30:06;0.10;;;0.10;;
56333;SDS011;42240;53.626;55.886;2023-05-10T04:31:40;0.10;;;0.10;;
56333;SDS011;42240;53.626;55.886;2023-05-10T04:33:13;0.10;;;0.10;;
56333;SDS011;42240;53.626;55.886;2023-05-10T04:34:47;0.10;;;0.10;;
56333;SDS011;42240;53.626;55.886;2023-05-10T04:36:20;0.10;;;0.10;;
56333;SDS011;42240;53.626;55.886;2023-05-10T04:37:54;0.10;;;0.10;;
56333;SDS011;42240;53.626;55.886;2023-05-10T04:39:27;0.10;;;0.10;;
56333;SDS011;42240;53.626;55.886;2023-05-10T04:41:04;0.10;;;0.10;;
56333;SDS011;42240;53.626;55.886;2023-05-10T04:42:39;0.10;;;0.10;;
56333;SDS011;42240;53.626;55.886;2023-05-10T04:44:14;0.00;;;0.00;;
56333;SDS011;42240;53.626;55.886;2023-05-10T04:45:47;0.10;;;0.10;;
56333;SDS011;42240;53.626;55.886;2023-05-10T04:47:20;0.10;;;0.10;;
56333;SDS011;42240;53.626;55.886;2023-05-10T04:48:54;0.10;;;0.10;;
56333;SDS011;42240;53.626;55.886;2023-05-10T04:50:27;0.10;;;0.10;;
56333;SDS011;42240;53.626;55.886;2023-05-10T04:52:00;0.10;;;0.10;;
56333;SDS011;42240;53.626;55.886;2023-05-10T04:53:34;0.10;;;0.10;;
56333;SDS011;42240;53.626;55.886;2023-05-10T04:55:07;0.10;;;0.10;;
56333;SDS011;42240;53.626;55.886;2023-05-10T04:56:42;0.10;;;0.10;;
56333;SDS011;42240;53.626;55.886;2023-05-10T04:58:15;0.00;;;0.00;;
56333;SDS011;42240;53.626;55.886;2023-05-10T04:59:49;0.10;;;0.10;;
56333;SDS011;42240;53.626;55.886;2023-05-10T05:01:22;0.10;;;0.10;;
56333;SDS011;42240;53.626;55.886;2023-05-10T05:02:56;0.08;;;0.08;;
56333;SDS011;42240;53.626;55.886;2023-05-10T05:04:29;0.08;;;0.08;;
56333;SDS011;42240;53.626;55.886;2023-05-10T05:06:03;0.00;;;0.00;;
56333;SDS011;42240;53.626;55.886;2023-05-10T05:07:36;0.10;;;0.10;;
56333;SDS011;42240;53.626;55.886;2023-05-10T05:09:12;0.00;;;0.00;;
56333;SDS011;42240;53.626;55.886;2023-05-10T05:10:45;0.10;;;0.10;;
56333;SDS011;42240;53.626;55.886;2023-05-10T05:12:22;0.08;;;0.08;;
56333;SDS011;42240;53.626;55.886;2023-05-10T05:13:56;0.00;;;0.00;;
56333;SDS011;42240;53.626;55.886;2023-05-10T05:15:31;0.10;;;0.10;;
56333;SDS011;42240;53.626;55.886;2023-05-10T05:17:04;0.10;;;0.10;;
56333;SDS011;42240;53.626;55.886;2023-05-10T05:18:38;0.00;;;0.00;;
56333;SDS011;42240;53.626;55.886;2023-05-10T05:20:12;0.08;;;0.08;;
56333;SDS011;42240;53.626;55.886;2023-05-10T05:21:46;0.10;;;0.10;;
56333;SDS011;42240;53.626;55.886;2023-05-10T05:23:19;0.10;;;0.10;;
56333;SDS011;42240;53.626;55.886;2023-05-10T05:24:53;0.10;;;0.10;;
56333;SDS011;42240;53.626;55.886;2023-05-10T05:26:27;0.10;;;0.10;;
56333;SDS011;42240;53.626;55.886;2023-05-10T05:28:00;0.10;;;0.10;;
56333;SDS011;42240;53.626;55.886;2023-05-10T05:29:34;0.10;;;0.10;;
56333;SDS011;42240;53.626;55.886;2023-05-10T05:31:07;0.10;;;0.10;;
56333;SDS011;42240;53.626;55.886;2023-05-10T05:32:41;0.10;;;0.10;;
56333;SDS011;42240;53.626;55.886;2023-05-10T05:34:14;0.10;;;0.10;;
56333;SDS011;42240;53.626;55.886;2023-05-10T05:35:48;0.10;;;0.10;;
56333;SDS011;42240;53.626;55.886;2023-05-10T05:37:23;0.10;;;0.10;;
56333;SDS011;42240;53.626;55.886;2023-05-10T05:38:57;0.10;;;0.10;;
56333;SDS011;42240;53.626;55.886;2023-05-10T05:40:30;0.10;;;0.10;;
56333;SDS011;42240;53.626;55.886;2023-05-10T05:42:04;0.10;;;0.10;;
56333;SDS011;42240;53.626;55.886;2023-05-10T05:43:37;0.10;;;0.10;;
56333;SDS011;42240;53.626;55.886;2023-05-10T05:45:11;0.10;;;0.10;;
56333;SDS011;42240;53.626;55.886;2023-05-10T05:46:46;0.10;;;0.10;;
56333;SDS011;42240;53.626;55.886;2023-05-10T05:48:19;0.10;;;0.10;;
56333;SDS011;42240;53.626;55.886;2023-05-10T05:49:52;0.10;;;0.10;;
56333;SDS011;42240;53.626;55.886;2023-05-10T05:51:26;0.15;;;0.15;;
56333;SDS011;42240;53.626;55.886;2023-05-10T05:52:59;0.10;;;0.10;;
56333;SDS011;42240;53.626;55.886;2023-05-10T05:54:33;0.10;;;0.10;;
56333;SDS011;42240;53.626;55.886;2023-05-10T05:56:06;0.10;;;0.10;;
56333;SDS011;42240;53.626;55.886;2023-05-10T05:57:40;0.10;;;0.10;;
56333;SDS011;42240;53.626;55.886;2023-05-10T05:59:13;0.10;;;0.10;;
56333;SDS011;42240;53.626;55.886;2023-05-10T06:00:47;0.10;;;0.10;;
56333;SDS011;42240;53.626;55.886;2023-05-10T06:02:20;0.10;;;0.10;;
56333;SDS011;42240;53.626;55.886;2023-05-10T06:03:54;0.10;;;0.10;;
56333;SDS011;42240;53.626;55.886;2023-05-10T06:05:28;0.10;;;0.10;;
56333;SDS011;42240;53.626;55.886;2023-05-10T06:07:01;0.10;;;0.10;;
56333;SDS011;42240;53.626;55.886;2023-05-10T06:08:34;0.10;;;0.10;;
56333;SDS011;42240;53.626;55.886;2023-05-10T06:10:08;0.10;;;0.10;;
56333;SDS011;42240;53.626;55.886;2023-05-10T06:11:42;0.10;;;0.10;;
56333;SDS011;42240;53.626;55.886;2023-05-10T06:13:15;0.10;;;0.10;;
56333;SDS011;42240;53.626;55.886;2023-05-10T06:14:48;0.20;;;0.20;;
56333;SDS011;42240;53.626;55.886;2023-05-10T06:16:22;0.10;;;0.10;;
56333;SDS011;42240;53.626;55.886;2023-05-10T06:17:56;0.10;;;0.10;;
56333;SDS011;42240;53.626;55.886;2023-05-10T06:19:29;0.10;;;0.10;;
56333;SDS011;42240;53.626;55.886;2023-05-10T06:21:03;0.10;;;0.10;;
56333;SDS011;42240;53.626;55.886;2023-05-10T06:22:36;0.10;;;0.10;;
56333;SDS011;42240;53.626;55.886;2023-05-10T06:24:09;0.10;;;0.10;;
56333;SDS011;42240;53.626;55.886;2023-05-10T06:25:42;0.10;;;0.10;;
56333;SDS011;42240;53.626;55.886;2023-05-10T06:27:16;0.10;;;0.10;;
56333;SDS011;42240;53.626;55.886;2023-05-10T06:28:49;0.10;;;0.10;;
56333;SDS011;42240;53.626;55.886;2023-05-10T06:30:23;0.10;;;0.10;;
56333;SDS011;42240;53.626;55.886;2023-05-10T06:32:01;0.10;;;0.10;;
56333;SDS011;42240;53.626;55.886;2023-05-10T06:33:35;0.10;;;0.10;;
56333;SDS011;42240;53.626;55.886;2023-05-10T06:35:08;0.10;;;0.10;;
56333;SDS011;42240;53.626;55.886;2023-05-10T06:36:42;0.10;;;0.10;;
56333;SDS011;42240;53.626;55.886;2023-05-10T06:38:15;0.10;;;0.10;;
56333;SDS011;42240;53.626;55.886;2023-05-10T06:39:49;0.10;;;0.10;;
56333;SDS011;42240;53.626;55.886;2023-05-10T06:41:22;0.10;;;0.10;;
56333;SDS011;42240;53.626;55.886;2023-05-10T06:42:56;0.10;;;0.10;;
56333;SDS011;42240;53.626;55.886;2023-05-10T06:44:29;0.10;;;0.10;;
56333;SDS011;42240;53.626;55.886;2023-05-10T06:46:03;0.10;;;0.10;;
56333;SDS011;42240;53.626;55.886;2023-05-10T06:47:36;0.13;;;0.13;;
56333;SDS011;42240;53.626;55.886;2023-05-10T06:49:10;0.10;;;0.10;;
56333;SDS011;42240;53.626;55.886;2023-05-10T06:50:44;0.10;;;0.10;;
56333;SDS011;42240;53.626;55.886;2023-05-10T06:52:18;0.10;;;0.10;;
56333;SDS011;42240;53.626;55.886;2023-05-10T06:53:59;0.13;;;0.13;;
56333;SDS011;42240;53.626;55.886;2023-05-10T06:55:33;0.10;;;0.10;;
56333;SDS011;42240;53.626;55.886;2023-05-10T06:57:06;0.10;;;0.10;;
56333;SDS011;42240;53.626;55.886;2023-05-10T06:58:54;0.10;;;0.10;;
56333;SDS011;42240;53.626;55.886;2023-05-10T07:00:28;0.10;;;0.10;;
56333;SDS011;42240;53.626;55.886;2023-05-10T07:02:01;0.10;;;0.10;;
56333;SDS011;42240;53.626;55.886;2023-05-10T07:03:34;0.10;;;0.10;;
56333;SDS011;42240;53.626;55.886;2023-05-10T07:05:08;0.10;;;0.10;;
56333;SDS011;42240;53.626;55.886;2023-05-10T07:06:42;0.10;;;0.10;;
56333;SDS011;42240;53.626;55.886;2023-05-10T07:08:15;0.15;;;0.15;;
56333;SDS011;42240;53.626;55.886;2023-05-10T07:09:51;0.10;;;0.10;;
56333;SDS011;42240;53.626;55.886;2023-05-10T07:11:24;0.10;;;0.10;;
56333;SDS011;42240;53.626;55.886;2023-05-10T07:12:58;0.10;;;0.10;;
56333;SDS011;42240;53.626;55.886;2023-05-10T07:14:32;0.10;;;0.10;;
56333;SDS011;42240;53.626;55.886;2023-05-10T07:16:05;0.10;;;0.10;;
56333;SDS011;42240;53.626;55.886;2023-05-10T07:17:39;0.10;;;0.10;;
56333;SDS011;42240;53.626;55.886;2023-05-10T07:19:16;0.15;;;0.15;;
56333;SDS011;42240;53.626;55.886;2023-05-10T07:20:49;0.10;;;0.10;;
56333;SDS011;42240;53.626;55.886;2023-05-10T07:22:22;0.10;;;0.10;;
56333;SDS011;42240;53.626;55.886;2023-05-10T07:23:55;0.10;;;0.10;;
56333;SDS011;42240;53.626;55.886;2023-05-10T07:25:28;0.10;;;0.10;;
56333;SDS011;42240;53.626;55.886;2023-05-10T07:27:02;0.10;;;0.10;;
56333;SDS011;42240;53.626;55.886;2023-05-10T07:28:36;0.10;;;0.10;;
56333;SDS011;42240;53.626;55.886;2023-05-10T07:30:13;0.10;;;0.10;;
56333;SDS011;42240;53.626;55.886;2023-05-10T07:31:46;0.10;;;0.10;;
56333;SDS011;42240;53.626;55.886;2023-05-10T07:33:19;0.10;;;0.10;;
56333;SDS011;42240;53.626;55.886;2023-05-10T07:34:53;0.10;;;0.10;;
56333;SDS011;42240;53.626;55.886;2023-05-10T07:36:27;0.10;;;0.10;;
56333;SDS011;42240;53.626;55.886;2023-05-10T07:38:00;0.10;;;0.10;;
56333;SDS011;42240;53.626;55.886;2023-05-10T07:39:34;0.10;;;0.10;;
56333;SDS011;42240;53.626;55.886;2023-05-10T07:41:07;0.10;;;0.10;;
56333;SDS011;42240;53.626;55.886;2023-05-10T07:42:40;0.10;;;0.10;;
56333;SDS011;42240;53.626;55.886;2023-05-10T07:44:14;0.00;;;0.00;;
56333;SDS011;42240;53.626;55.886;2023-05-10T07:45:47;0.10;;;0.10;;
56333;SDS011;42240;53.626;55.886;2023-05-10T07:47:21;0.10;;;0.10;;
56333;SDS011;42240;53.626;55.886;2023-05-10T07:48:54;0.10;;;0.10;;
56333;SDS011;42240;53.626;55.886;2023-05-10T07:50:28;0.10;;;0.10;;
56333;SDS011;42240;53.626;55.886;2023-05-10T07:52:02;0.10;;;0.10;;
56333;SDS011;42240;53.626;55.886;2023-05-10T07:53:36;0.10;;;0.10;;
56333;SDS011;42240;53.626;55.886;2023-05-10T07:55:10;0.10;;;0.10;;
56333;SDS011;42240;53.626;55.886;2023-05-10T07:56:43;0.10;;;0.10;;
56333;SDS011;42240;53.626;55.886;2023-05-10T07:58:19;0.10;;;0.10;;
56333;SDS011;42240;53.626;55.886;2023-05-10T07:59:53;0.00;;;0.00;;
56333;SDS011;42240;53.626;55.886;2023-05-10T08:01:26;0.00;;;0.00;;
56333;SDS011;42240;53.626;55.886;2023-05-10T08:03:03;0.10;;;0.10;;
56333;SDS011;42240;53.626;55.886;2023-05-10T08:04:36;0.10;;;0.10;;
56333;SDS011;42240;53.626;55.886;2023-05-10T08:06:09;0.00;;;0.00;;
56333;SDS011;42240;53.626;55.886;2023-05-10T08:07:43;0.10;;;0.10;;
56333;SDS011;42240;53.626;55.886;2023-05-10T08:09:16;0.03;;;0.03;;
56333;SDS011;42240;53.626;55.886;2023-05-10T08:10:50;0.10;;;0.10;;
56333;SDS011;42240;53.626;55.886;2023-05-10T08:12:24;0.00;;;0.00;;
56333;SDS011;42240;53.626;55.886;2023-05-10T08:13:58;0.10;;;0.10;;
56333;SDS011;42240;53.626;55.886;2023-05-10T08:15:31;0.10;;;0.10;;
56333;SDS011;42240;53.626;55.886;2023-05-10T08:17:04;0.10;;;0.10;;
56333;SDS011;42240;53.626;55.886;2023-05-10T08:18:38;0.10;;;0.10;;
56333;SDS011;42240;53.626;55.886;2023-05-10T08:20:12;0.10;;;0.10;;
56333;SDS011;42240;53.626;55.886;2023-05-10T08:21:49;0.00;;;0.00;;
56333;SDS011;42240;53.626;55.886;2023-05-10T08:23:22;0.10;;;0.10;;
56333;SDS011;42240;53.626;55.886;2023-05-10T08:24:55;0.10;;;0.10;;
56333;SDS011;42240;53.626;55.886;2023-05-10T08:26:28;0.10;;;0.10;;
56333;SDS011;42240;53.626;55.886;2023-05-10T08:28:01;0.10;;;0.10;;
56333;SDS011;42240;53.626;55.886;2023-05-10T08:29:38;0.10;;;0.10;;
56333;SDS011;42240;53.626;55.886;2023-05-10T08:32:54;0.10;;;0.10;;
56333;SDS011;42240;53.626;55.886;2023-05-10T08:34:28;0.10;;;0.10;;
56333;SDS011;42240;53.626;55.886;2023-05-10T08:36:04;0.00;;;0.00;;
56333;SDS011;42240;53.626;55.886;2023-05-10T08:37:37;0.10;;;0.10;;
56333;SDS011;42240;53.626;55.886;2023-05-10T08:39:15;0.10;;;0.10;;
56333;SDS011;42240;53.626;55.886;2023-05-10T08:41:01;0.10;;;0.10;;
56333;SDS011;42240;53.626;55.886;2023-05-10T08:42:36;0.10;;;0.10;;
56333;SDS011;42240;53.626;55.886;2023-05-10T08:44:13;0.10;;;0.10;;
56333;SDS011;42240;53.626;55.886;2023-05-10T08:45:47;0.10;;;0.10;;
56333;SDS011;42240;53.626;55.886;2023-05-10T08:47:23;0.00;;;0.00;;
56333;SDS011;42240;53.626;55.886;2023-05-10T08:48:57;0.10;;;0.10;;
56333;SDS011;42240;53.626;55.886;2023-05-10T08:50:38;0.10;;;0.10;;
56333;SDS011;42240;53.626;55.886;2023-05-10T08:52:13;0.10;;;0.10;;
56333;SDS011;42240;53.626;55.886;2023-05-10T08:53:49;0.10;;;0.10;;
56333;SDS011;42240;53.626;55.886;2023-05-10T08:55:23;0.10;;;0.10;;
56333;SDS011;42240;53.626;55.886;2023-05-10T08:56:56;0.10;;;0.10;;
56333;SDS011;42240;53.626;55.886;2023-05-10T08:58:30;0.05;;;0.05;;
56333;SDS011;42240;53.626;55.886;2023-05-10T09:00:04;0.10;;;0.10;;
56333;SDS011;42240;53.626;55.886;2023-05-10T09:01:38;0.10;;;0.10;;
56333;SDS011;42240;53.626;55.886;2023-05-10T09:03:15;0.10;;;0.10;;
56333;SDS011;42240;53.626;55.886;2023-05-10T09:04:52;0.00;;;0.00;;
56333;SDS011;42240;53.626;55.886;2023-05-10T09:06:26;0.10;;;0.10;;
56333;SDS011;42240;53.626;55.886;2023-05-10T09:08:01;0.10;;;0.10;;
56333;SDS011;42240;53.626;55.886;2023-05-10T09:09:35;0.10;;;0.10;;
56333;SDS011;42240;53.626;55.886;2023-05-10T09:11:15;0.10;;;0.10;;
56333;SDS011;42240;53.626;55.886;2023-05-10T09:12:50;0.10;;;0.10;;
56333;SDS011;42240;53.626;55.886;2023-05-10T09:14:24;0.10;;;0.10;;
56333;SDS011;42240;53.626;55.886;2023-05-10T09:15:58;0.10;;;0.10;;
56333;SDS011;42240;53.626;55.886;2023-05-10T09:17:51;0.10;;;0.10;;
56333;SDS011;42240;53.626;55.886;2023-05-10T09:19:25;0.10;;;0.10;;
56333;SDS011;42240;53.626;55.886;2023-05-10T09:20:58;0.00;;;0.00;;
56333;SDS011;42240;53.626;55.886;2023-05-10T09:22:32;0.10;;;0.10;;
56333;SDS011;42240;53.626;55.886;2023-05-10T09:24:06;0.10;;;0.10;;
56333;SDS011;42240;53.626;55.886;2023-05-10T09:25:43;0.10;;;0.10;;
56333;SDS011;42240;53.626;55.886;2023-05-10T09:27:16;0.03;;;0.03;;
56333;SDS011;42240;53.626;55.886;2023-05-10T09:28:57;0.00;;;0.00;;
56333;SDS011;42240;53.626;55.886;2023-05-10T09:30:32;0.10;;;0.10;;
56333;SDS011;42240;53.626;55.886;2023-05-10T09:32:05;0.10;;;0.10;;
56333;SDS011;42240;53.626;55.886;2023-05-10T09:33:45;0.10;;;0.10;;
56333;SDS011;42240;53.626;55.886;2023-05-10T09:35:26;0.10;;;0.10;;
56333;SDS011;42240;53.626;55.886;2023-05-10T09:37:01;0.10;;;0.10;;
56333;SDS011;42240;53.626;55.886;2023-05-10T09:40:24;0.10;;;0.10;;
56333;SDS011;42240;53.626;55.886;2023-05-10T09:41:59;0.10;;;0.10;;
56333;SDS011;42240;53.626;55.886;2023-05-10T09:43:39;0.00;;;0.00;;